sensor_id;sensor_type;location;lat;lon;timestamp;P1;durP1;ratioP1;P2;durP2;ratioP2
24102;SDS011;12278;53.058;9.028;2022-10-16T00:02:15;5.53;;;2.45;;
24102;SDS011;12278;53.058;9.028;2022-10-16T00:06:16;2.60;;;1.73;;
24102;SDS011;12278;53.058;9.028;2022-10-16T00:10:18;2.88;;;2.20;;
24102;SDS011;12278;53.058;9.028;2022-10-16T00:14:18;2.10;;;1.88;;
24102;SDS011;12278;53.058;9.028;2022-10-16T00:18:19;4.72;;;2.25;;
24102;SDS011;12278;53.058;9.028;2022-10-16T00:22:29;2.92;;;2.00;;
24102;SDS011;12278;53.058;9.028;2022-10-16T00:35:20;4.43;;;1.70;;
24102;SDS011;12278;53.058;9.028;2022-10-16T00:39:21;2.63;;;1.77;;
24102;SDS011;12278;53.058;9.028;2022-10-16T00:47:42;3.40;;;2.15;;
24102;SDS011;12278;53.058;9.028;2022-10-16T00:51:46;2.40;;;1.75;;
24102;SDS011;12278;53.058;9.028;2022-10-16T00:55:50;1.92;;;1.73;;
24102;SDS011;12278;53.058;9.028;2022-10-16T00:59:51;2.92;;;2.03;;
24102;SDS011;12278;53.058;9.028;2022-10-16T01:03:53;2.53;;;1.55;;
24102;SDS011;12278;53.058;9.028;2022-10-16T01:07:59;3.75;;;2.13;;
24102;SDS011;12278;53.058;9.028;2022-10-16T01:20:31;3.53;;;1.77;;
24102;SDS011;12278;53.058;9.028;2022-10-16T01:24:38;4.10;;;1.92;;
24102;SDS011;12278;53.058;9.028;2022-10-16T01:33:06;2.72;;;1.73;;
24102;SDS011;12278;53.058;9.028;2022-10-16T01:37:12;2.88;;;2.03;;
24102;SDS011;12278;53.058;9.028;2022-10-16T01:41:19;2.20;;;2.00;;
24102;SDS011;12278;53.058;9.028;2022-10-16T01:45:24;4.85;;;2.83;;
24102;SDS011;12278;53.058;9.028;2022-10-16T01:49:27;4.90;;;2.60;;
24102;SDS011;12278;53.058;9.028;2022-10-16T01:53:32;6.20;;;2.47;;
24102;SDS011;12278;53.058;9.028;2022-10-16T01:57:33;5.30;;;2.63;;
24102;SDS011;12278;53.058;9.028;2022-10-16T02:01:38;2.05;;;1.85;;
24102;SDS011;12278;53.058;9.028;2022-10-16T02:05:45;2.60;;;2.20;;
24102;SDS011;12278;53.058;9.028;2022-10-16T02:09:49;4.30;;;2.47;;
24102;SDS011;12278;53.058;9.028;2022-10-16T02:13:52;3.85;;;2.30;;
24102;SDS011;12278;53.058;9.028;2022-10-16T02:17:56;3.95;;;2.47;;
24102;SDS011;12278;53.058;9.028;2022-10-16T02:21:58;2.40;;;2.20;;
24102;SDS011;12278;53.058;9.028;2022-10-16T02:26:03;3.13;;;2.83;;
24102;SDS011;12278;53.058;9.028;2022-10-16T02:30:13;2.83;;;2.13;;
24102;SDS011;12278;53.058;9.028;2022-10-16T02:34:21;5.03;;;3.17;;
24102;SDS011;12278;53.058;9.028;2022-10-16T02:38:24;3.15;;;2.80;;
24102;SDS011;12278;53.058;9.028;2022-10-16T02:42:31;3.38;;;2.40;;
24102;SDS011;12278;53.058;9.028;2022-10-16T02:46:34;4.57;;;2.70;;
24102;SDS011;12278;53.058;9.028;2022-10-16T02:50:34;4.65;;;3.55;;
24102;SDS011;12278;53.058;9.028;2022-10-16T02:54:35;6.05;;;4.35;;
24102;SDS011;12278;53.058;9.028;2022-10-16T02:58:36;4.80;;;2.55;;
24102;SDS011;12278;53.058;9.028;2022-10-16T03:02:37;3.78;;;2.67;;
24102;SDS011;12278;53.058;9.028;2022-10-16T03:06:37;4.82;;;2.95;;
24102;SDS011;12278;53.058;9.028;2022-10-16T03:10:38;3.40;;;3.10;;
24102;SDS011;12278;53.058;9.028;2022-10-16T03:14:39;6.00;;;3.45;;
24102;SDS011;12278;53.058;9.028;2022-10-16T03:18:40;5.40;;;3.22;;
24102;SDS011;12278;53.058;9.028;2022-10-16T03:22:40;3.47;;;2.70;;
24102;SDS011;12278;53.058;9.028;2022-10-16T03:26:41;7.25;;;3.38;;
24102;SDS011;12278;53.058;9.028;2022-10-16T03:30:42;5.45;;;3.50;;
24102;SDS011;12278;53.058;9.028;2022-10-16T03:34:43;7.07;;;3.95;;
24102;SDS011;12278;53.058;9.028;2022-10-16T03:38:44;6.15;;;4.20;;
24102;SDS011;12278;53.058;9.028;2022-10-16T03:42:44;11.82;;;4.50;;
24102;SDS011;12278;53.058;9.028;2022-10-16T03:46:45;7.82;;;5.00;;
24102;SDS011;12278;53.058;9.028;2022-10-16T03:50:46;6.47;;;4.38;;
24102;SDS011;12278;53.058;9.028;2022-10-16T03:54:48;13.07;;;4.68;;
24102;SDS011;12278;53.058;9.028;2022-10-16T03:58:48;5.88;;;5.15;;
24102;SDS011;12278;53.058;9.028;2022-10-16T04:02:49;8.95;;;5.18;;
24102;SDS011;12278;53.058;9.028;2022-10-16T04:06:50;8.63;;;5.63;;
24102;SDS011;12278;53.058;9.028;2022-10-16T04:10:50;8.70;;;5.93;;
24102;SDS011;12278;53.058;9.028;2022-10-16T04:14:51;8.57;;;7.05;;
24102;SDS011;12278;53.058;9.028;2022-10-16T04:18:52;7.50;;;5.78;;
24102;SDS011;12278;53.058;9.028;2022-10-16T04:22:52;6.75;;;5.70;;
24102;SDS011;12278;53.058;9.028;2022-10-16T04:26:53;10.20;;;6.03;;
24102;SDS011;12278;53.058;9.028;2022-10-16T04:30:53;9.02;;;6.25;;
24102;SDS011;12278;53.058;9.028;2022-10-16T04:34:54;10.25;;;6.55;;
24102;SDS011;12278;53.058;9.028;2022-10-16T04:38:55;8.10;;;6.30;;
24102;SDS011;12278;53.058;9.028;2022-10-16T04:42:55;9.05;;;5.63;;
24102;SDS011;12278;53.058;9.028;2022-10-16T04:46:56;8.10;;;6.35;;
24102;SDS011;12278;53.058;9.028;2022-10-16T04:50:57;10.13;;;5.97;;
24102;SDS011;12278;53.058;9.028;2022-10-16T04:54:58;12.43;;;7.07;;
24102;SDS011;12278;53.058;9.028;2022-10-16T04:59:01;8.13;;;6.18;;
24102;SDS011;12278;53.058;9.028;2022-10-16T05:03:02;10.32;;;6.22;;
24102;SDS011;12278;53.058;9.028;2022-10-16T05:07:05;8.50;;;6.65;;
24102;SDS011;12278;53.058;9.028;2022-10-16T05:11:06;10.02;;;7.20;;
24102;SDS011;12278;53.058;9.028;2022-10-16T05:15:07;9.27;;;6.38;;
24102;SDS011;12278;53.058;9.028;2022-10-16T05:19:08;10.20;;;7.28;;
24102;SDS011;12278;53.058;9.028;2022-10-16T05:27:50;9.20;;;6.60;;
24102;SDS011;12278;53.058;9.028;2022-10-16T05:31:52;10.30;;;7.32;;
24102;SDS011;12278;53.058;9.028;2022-10-16T05:36:01;8.93;;;7.18;;
24102;SDS011;12278;53.058;9.028;2022-10-16T05:40:11;10.70;;;6.57;;
24102;SDS011;12278;53.058;9.028;2022-10-16T05:44:16;9.88;;;6.43;;
24102;SDS011;12278;53.058;9.028;2022-10-16T05:52:35;7.90;;;5.68;;
24102;SDS011;12278;53.058;9.028;2022-10-16T06:01:09;8.98;;;5.78;;
24102;SDS011;12278;53.058;9.028;2022-10-16T06:05:11;10.05;;;5.97;;
24102;SDS011;12278;53.058;9.028;2022-10-16T06:09:15;7.30;;;5.72;;
24102;SDS011;12278;53.058;9.028;2022-10-16T06:13:15;11.57;;;6.45;;
24102;SDS011;12278;53.058;9.028;2022-10-16T06:17:16;7.63;;;5.35;;
24102;SDS011;12278;53.058;9.028;2022-10-16T06:21:35;10.38;;;5.93;;
24102;SDS011;12278;53.058;9.028;2022-10-16T06:25:36;6.80;;;5.60;;
24102;SDS011;12278;53.058;9.028;2022-10-16T06:29:36;8.85;;;5.38;;
24102;SDS011;12278;53.058;9.028;2022-10-16T06:33:40;8.70;;;6.18;;
24102;SDS011;12278;53.058;9.028;2022-10-16T06:37:43;9.25;;;5.30;;
24102;SDS011;12278;53.058;9.028;2022-10-16T06:41:44;7.95;;;6.90;;
24102;SDS011;12278;53.058;9.028;2022-10-16T06:45:54;7.03;;;4.97;;
24102;SDS011;12278;53.058;9.028;2022-10-16T06:49:57;11.52;;;6.50;;
24102;SDS011;12278;53.058;9.028;2022-10-16T06:53:58;8.98;;;5.50;;
24102;SDS011;12278;53.058;9.028;2022-10-16T06:57:59;8.68;;;5.13;;
24102;SDS011;12278;53.058;9.028;2022-10-16T07:01:59;8.13;;;5.53;;
24102;SDS011;12278;53.058;9.028;2022-10-16T07:06:06;5.05;;;4.55;;
24102;SDS011;12278;53.058;9.028;2022-10-16T07:10:08;6.32;;;5.28;;
24102;SDS011;12278;53.058;9.028;2022-10-16T07:14:21;6.22;;;4.88;;
24102;SDS011;12278;53.058;9.028;2022-10-16T07:18:22;7.20;;;5.50;;
24102;SDS011;12278;53.058;9.028;2022-10-16T07:22:29;8.52;;;5.13;;
24102;SDS011;12278;53.058;9.028;2022-10-16T07:26:30;5.55;;;4.15;;
24102;SDS011;12278;53.058;9.028;2022-10-16T07:30:34;5.32;;;4.20;;
24102;SDS011;12278;53.058;9.028;2022-10-16T07:34:36;5.10;;;3.80;;
24102;SDS011;12278;53.058;9.028;2022-10-16T07:38:41;4.72;;;4.13;;
24102;SDS011;12278;53.058;9.028;2022-10-16T07:42:44;8.70;;;4.10;;
24102;SDS011;12278;53.058;9.028;2022-10-16T07:46:48;3.83;;;3.38;;
24102;SDS011;12278;53.058;9.028;2022-10-16T07:50:58;5.22;;;3.67;;
24102;SDS011;12278;53.058;9.028;2022-10-16T07:55:06;4.22;;;3.03;;
24102;SDS011;12278;53.058;9.028;2022-10-16T07:59:09;4.00;;;3.47;;
24102;SDS011;12278;53.058;9.028;2022-10-16T08:03:09;3.47;;;3.17;;
24102;SDS011;12278;53.058;9.028;2022-10-16T08:07:10;7.38;;;3.40;;
24102;SDS011;12278;53.058;9.028;2022-10-16T08:11:11;3.30;;;3.00;;
24102;SDS011;12278;53.058;9.028;2022-10-16T08:15:11;5.47;;;3.25;;
24102;SDS011;12278;53.058;9.028;2022-10-16T08:19:12;7.05;;;3.00;;
24102;SDS011;12278;53.058;9.028;2022-10-16T08:23:12;5.75;;;3.70;;
24102;SDS011;12278;53.058;9.028;2022-10-16T08:27:16;7.45;;;4.68;;
24102;SDS011;12278;53.058;9.028;2022-10-16T08:31:20;4.10;;;2.75;;
24102;SDS011;12278;53.058;9.028;2022-10-16T08:35:21;5.40;;;3.25;;
24102;SDS011;12278;53.058;9.028;2022-10-16T08:39:24;4.50;;;2.35;;
24102;SDS011;12278;53.058;9.028;2022-10-16T08:47:48;3.70;;;2.40;;
24102;SDS011;12278;53.058;9.028;2022-10-16T08:52:10;2.40;;;2.20;;
24102;SDS011;12278;53.058;9.028;2022-10-16T08:56:13;2.50;;;2.30;;
24102;SDS011;12278;53.058;9.028;2022-10-16T09:00:15;4.22;;;2.60;;
24102;SDS011;12278;53.058;9.028;2022-10-16T09:08:56;2.25;;;1.85;;
24102;SDS011;12278;53.058;9.028;2022-10-16T09:17:24;3.05;;;1.58;;
24102;SDS011;12278;53.058;9.028;2022-10-16T09:21:40;4.63;;;1.98;;
24102;SDS011;12278;53.058;9.028;2022-10-16T09:25:44;2.08;;;1.60;;
24102;SDS011;12278;53.058;9.028;2022-10-16T09:29:47;8.35;;;1.85;;
24102;SDS011;12278;53.058;9.028;2022-10-16T09:33:50;2.72;;;1.70;;
24102;SDS011;12278;53.058;9.028;2022-10-16T09:37:58;1.50;;;1.25;;
24102;SDS011;12278;53.058;9.028;2022-10-16T09:41:59;2.40;;;1.40;;
24102;SDS011;12278;53.058;9.028;2022-10-16T09:46:01;5.25;;;1.63;;
24102;SDS011;12278;53.058;9.028;2022-10-16T09:50:04;5.03;;;1.40;;
24102;SDS011;12278;53.058;9.028;2022-10-16T09:54:20;1.90;;;1.33;;
24102;SDS011;12278;53.058;9.028;2022-10-16T09:58:21;2.20;;;1.17;;
24102;SDS011;12278;53.058;9.028;2022-10-16T10:06:32;2.75;;;1.33;;
24102;SDS011;12278;53.058;9.028;2022-10-16T10:10:42;2.08;;;1.05;;
24102;SDS011;12278;53.058;9.028;2022-10-16T10:14:44;4.47;;;0.93;;
24102;SDS011;12278;53.058;9.028;2022-10-16T10:18:57;3.53;;;1.20;;
24102;SDS011;12278;53.058;9.028;2022-10-16T10:22:58;1.90;;;1.45;;
24102;SDS011;12278;53.058;9.028;2022-10-16T10:27:02;2.03;;;1.02;;
24102;SDS011;12278;53.058;9.028;2022-10-16T10:35:15;3.80;;;1.08;;
24102;SDS011;12278;53.058;9.028;2022-10-16T10:39:30;1.58;;;1.10;;
24102;SDS011;12278;53.058;9.028;2022-10-16T10:43:44;1.25;;;0.70;;
24102;SDS011;12278;53.058;9.028;2022-10-16T11:01:42;1.98;;;1.30;;
24102;SDS011;12278;53.058;9.028;2022-10-16T11:14:05;2.25;;;1.08;;
24102;SDS011;12278;53.058;9.028;2022-10-16T11:27:07;1.73;;;0.95;;
24102;SDS011;12278;53.058;9.028;2022-10-16T11:31:14;2.13;;;1.00;;
24102;SDS011;12278;53.058;9.028;2022-10-16T11:39:43;3.50;;;1.52;;
24102;SDS011;12278;53.058;9.028;2022-10-16T11:52:39;4.30;;;1.10;;
24102;SDS011;12278;53.058;9.028;2022-10-16T11:56:44;3.60;;;0.90;;
24102;SDS011;12278;53.058;9.028;2022-10-16T12:05:11;0.73;;;0.70;;
24102;SDS011;12278;53.058;9.028;2022-10-16T12:09:36;2.03;;;1.02;;
24102;SDS011;12278;53.058;9.028;2022-10-16T12:13:39;5.75;;;1.60;;
24102;SDS011;12278;53.058;9.028;2022-10-16T12:17:40;2.45;;;0.90;;
24102;SDS011;12278;53.058;9.028;2022-10-16T12:21:41;3.40;;;1.00;;
24102;SDS011;12278;53.058;9.028;2022-10-16T12:25:53;2.72;;;0.90;;
24102;SDS011;12278;53.058;9.028;2022-10-16T12:30:02;2.63;;;1.08;;
24102;SDS011;12278;53.058;9.028;2022-10-16T12:34:05;2.72;;;0.80;;
24102;SDS011;12278;53.058;9.028;2022-10-16T12:38:07;2.03;;;1.02;;
24102;SDS011;12278;53.058;9.028;2022-10-16T12:46:38;0.80;;;0.57;;
24102;SDS011;12278;53.058;9.028;2022-10-16T12:50:39;2.00;;;0.75;;
24102;SDS011;12278;53.058;9.028;2022-10-16T12:54:41;4.93;;;1.10;;
24102;SDS011;12278;53.058;9.028;2022-10-16T13:20:34;5.45;;;1.33;;
24102;SDS011;12278;53.058;9.028;2022-10-16T13:29:02;5.97;;;1.52;;
24102;SDS011;12278;53.058;9.028;2022-10-16T13:33:05;1.60;;;1.02;;
24102;SDS011;12278;53.058;9.028;2022-10-16T13:37:43;4.32;;;1.00;;
24102;SDS011;12278;53.058;9.028;2022-10-16T13:41:38;3.47;;;1.13;;
24102;SDS011;12278;53.058;9.028;2022-10-16T13:45:39;3.78;;;1.08;;
24102;SDS011;12278;53.058;9.028;2022-10-16T13:49:42;1.70;;;0.85;;
24102;SDS011;12278;53.058;9.028;2022-10-16T13:53:43;2.47;;;0.90;;
24102;SDS011;12278;53.058;9.028;2022-10-16T13:57:45;4.88;;;1.50;;
24102;SDS011;12278;53.058;9.028;2022-10-16T14:01:46;0.70;;;0.63;;
24102;SDS011;12278;53.058;9.028;2022-10-16T14:05:47;4.75;;;1.27;;
24102;SDS011;12278;53.058;9.028;2022-10-16T14:09:55;5.28;;;1.58;;
24102;SDS011;12278;53.058;9.028;2022-10-16T14:14:01;1.80;;;0.80;;
24102;SDS011;12278;53.058;9.028;2022-10-16T14:18:02;2.97;;;1.20;;
24102;SDS011;12278;53.058;9.028;2022-10-16T14:22:03;2.90;;;1.20;;
24102;SDS011;12278;53.058;9.028;2022-10-16T14:26:41;4.22;;;0.95;;
24102;SDS011;12278;53.058;9.028;2022-10-16T14:35:37;4.07;;;1.30;;
24102;SDS011;12278;53.058;9.028;2022-10-16T14:39:39;2.85;;;1.48;;
24102;SDS011;12278;53.058;9.028;2022-10-16T14:43:41;3.97;;;1.02;;
24102;SDS011;12278;53.058;9.028;2022-10-16T14:47:52;1.45;;;1.02;;
24102;SDS011;12278;53.058;9.028;2022-10-16T14:51:55;4.50;;;1.67;;
24102;SDS011;12278;53.058;9.028;2022-10-16T14:55:57;3.00;;;1.20;;
24102;SDS011;12278;53.058;9.028;2022-10-16T14:59:58;4.63;;;1.02;;
24102;SDS011;12278;53.058;9.028;2022-10-16T15:03:59;3.47;;;1.33;;
24102;SDS011;12278;53.058;9.028;2022-10-16T15:08:00;3.08;;;1.13;;
24102;SDS011;12278;53.058;9.028;2022-10-16T15:12:00;4.10;;;1.45;;
24102;SDS011;12278;53.058;9.028;2022-10-16T15:16:03;2.30;;;1.17;;
24102;SDS011;12278;53.058;9.028;2022-10-16T15:20:04;4.40;;;1.58;;
24102;SDS011;12278;53.058;9.028;2022-10-16T15:24:08;8.77;;;1.60;;
24102;SDS011;12278;53.058;9.028;2022-10-16T15:28:12;4.45;;;1.40;;
24102;SDS011;12278;53.058;9.028;2022-10-16T15:32:13;4.50;;;1.50;;
24102;SDS011;12278;53.058;9.028;2022-10-16T15:36:16;4.93;;;1.10;;
24102;SDS011;12278;53.058;9.028;2022-10-16T15:40:20;4.40;;;1.15;;
24102;SDS011;12278;53.058;9.028;2022-10-16T15:44:23;7.43;;;1.77;;
24102;SDS011;12278;53.058;9.028;2022-10-16T15:48:27;3.10;;;1.60;;
24102;SDS011;12278;53.058;9.028;2022-10-16T15:52:28;4.30;;;1.38;;
24102;SDS011;12278;53.058;9.028;2022-10-16T15:56:31;4.32;;;1.90;;
24102;SDS011;12278;53.058;9.028;2022-10-16T16:00:33;3.53;;;1.95;;
24102;SDS011;12278;53.058;9.028;2022-10-16T16:04:33;4.40;;;1.65;;
24102;SDS011;12278;53.058;9.028;2022-10-16T16:08:34;4.13;;;1.83;;
24102;SDS011;12278;53.058;9.028;2022-10-16T16:12:35;4.68;;;1.65;;
24102;SDS011;12278;53.058;9.028;2022-10-16T16:16:36;3.13;;;1.70;;
24102;SDS011;12278;53.058;9.028;2022-10-16T16:20:38;8.35;;;2.00;;
24102;SDS011;12278;53.058;9.028;2022-10-16T16:24:38;7.70;;;2.40;;
24102;SDS011;12278;53.058;9.028;2022-10-16T16:28:39;4.80;;;2.20;;
24102;SDS011;12278;53.058;9.028;2022-10-16T16:32:41;4.75;;;2.35;;
24102;SDS011;12278;53.058;9.028;2022-10-16T16:36:45;4.15;;;2.00;;
24102;SDS011;12278;53.058;9.028;2022-10-16T16:40:46;6.35;;;2.30;;
24102;SDS011;12278;53.058;9.028;2022-10-16T16:44:47;5.97;;;2.00;;
24102;SDS011;12278;53.058;9.028;2022-10-16T16:48:48;4.85;;;2.38;;
24102;SDS011;12278;53.058;9.028;2022-10-16T16:52:53;4.00;;;2.60;;
24102;SDS011;12278;53.058;9.028;2022-10-16T16:56:54;3.92;;;2.88;;
24102;SDS011;12278;53.058;9.028;2022-10-16T17:00:54;4.93;;;2.78;;
24102;SDS011;12278;53.058;9.028;2022-10-16T17:04:55;5.85;;;2.67;;
24102;SDS011;12278;53.058;9.028;2022-10-16T17:08:57;5.63;;;2.80;;
24102;SDS011;12278;53.058;9.028;2022-10-16T17:13:00;6.53;;;2.92;;
24102;SDS011;12278;53.058;9.028;2022-10-16T17:17:00;4.53;;;2.63;;
24102;SDS011;12278;53.058;9.028;2022-10-16T17:21:02;6.85;;;3.08;;
24102;SDS011;12278;53.058;9.028;2022-10-16T17:25:05;5.85;;;2.15;;
24102;SDS011;12278;53.058;9.028;2022-10-16T17:29:08;7.60;;;3.22;;
24102;SDS011;12278;53.058;9.028;2022-10-16T17:33:11;5.72;;;2.58;;
24102;SDS011;12278;53.058;9.028;2022-10-16T17:37:12;5.18;;;2.72;;
24102;SDS011;12278;53.058;9.028;2022-10-16T17:41:14;4.70;;;2.70;;
24102;SDS011;12278;53.058;9.028;2022-10-16T17:45:17;6.35;;;3.03;;
24102;SDS011;12278;53.058;9.028;2022-10-16T17:49:18;4.32;;;2.47;;
24102;SDS011;12278;53.058;9.028;2022-10-16T17:53:19;5.00;;;3.20;;
24102;SDS011;12278;53.058;9.028;2022-10-16T17:57:19;10.10;;;3.22;;
24102;SDS011;12278;53.058;9.028;2022-10-16T18:01:24;5.03;;;3.30;;
24102;SDS011;12278;53.058;9.028;2022-10-16T18:05:27;5.22;;;3.63;;
24102;SDS011;12278;53.058;9.028;2022-10-16T18:09:27;6.60;;;3.65;;
24102;SDS011;12278;53.058;9.028;2022-10-16T18:13:28;8.50;;;4.10;;
24102;SDS011;12278;53.058;9.028;2022-10-16T18:17:29;7.70;;;3.35;;
24102;SDS011;12278;53.058;9.028;2022-10-16T18:21:30;5.82;;;3.53;;
24102;SDS011;12278;53.058;9.028;2022-10-16T18:25:31;10.23;;;3.83;;
24102;SDS011;12278;53.058;9.028;2022-10-16T18:29:31;9.27;;;4.38;;
24102;SDS011;12278;53.058;9.028;2022-10-16T18:33:32;8.45;;;4.05;;
24102;SDS011;12278;53.058;9.028;2022-10-16T18:37:36;5.32;;;4.13;;
24102;SDS011;12278;53.058;9.028;2022-10-16T18:41:38;7.28;;;5.35;;
24102;SDS011;12278;53.058;9.028;2022-10-16T18:45:40;9.20;;;4.72;;
24102;SDS011;12278;53.058;9.028;2022-10-16T18:49:41;8.63;;;5.82;;
24102;SDS011;12278;53.058;9.028;2022-10-16T18:53:44;5.25;;;4.65;;
24102;SDS011;12278;53.058;9.028;2022-10-16T18:57:46;5.60;;;4.88;;
24102;SDS011;12278;53.058;9.028;2022-10-16T19:01:47;6.15;;;4.22;;
24102;SDS011;12278;53.058;9.028;2022-10-16T19:05:48;11.18;;;4.50;;
24102;SDS011;12278;53.058;9.028;2022-10-16T19:09:48;4.90;;;4.07;;
24102;SDS011;12278;53.058;9.028;2022-10-16T19:13:49;6.00;;;4.15;;
24102;SDS011;12278;53.058;9.028;2022-10-16T19:17:50;5.43;;;3.95;;
24102;SDS011;12278;53.058;9.028;2022-10-16T19:21:51;6.30;;;3.72;;
24102;SDS011;12278;53.058;9.028;2022-10-16T19:26:01;5.10;;;3.50;;
24102;SDS011;12278;53.058;9.028;2022-10-16T19:30:06;4.43;;;3.10;;
24102;SDS011;12278;53.058;9.028;2022-10-16T19:34:08;4.95;;;3.08;;
24102;SDS011;12278;53.058;9.028;2022-10-16T19:38:10;5.63;;;3.08;;
24102;SDS011;12278;53.058;9.028;2022-10-16T19:42:10;4.57;;;3.05;;
24102;SDS011;12278;53.058;9.028;2022-10-16T19:46:14;5.10;;;3.05;;
24102;SDS011;12278;53.058;9.028;2022-10-16T19:50:16;8.10;;;3.67;;
24102;SDS011;12278;53.058;9.028;2022-10-16T19:54:18;3.88;;;2.80;;
24102;SDS011;12278;53.058;9.028;2022-10-16T19:58:19;4.40;;;3.20;;
24102;SDS011;12278;53.058;9.028;2022-10-16T20:02:20;3.90;;;3.40;;
24102;SDS011;12278;53.058;9.028;2022-10-16T20:06:20;6.93;;;3.30;;
24102;SDS011;12278;53.058;9.028;2022-10-16T20:10:21;6.13;;;3.58;;
24102;SDS011;12278;53.058;9.028;2022-10-16T20:14:24;8.05;;;3.40;;
24102;SDS011;12278;53.058;9.028;2022-10-16T20:18:24;5.35;;;3.70;;
24102;SDS011;12278;53.058;9.028;2022-10-16T20:22:25;9.60;;;2.92;;
24102;SDS011;12278;53.058;9.028;2022-10-16T20:26:26;7.18;;;3.42;;
24102;SDS011;12278;53.058;9.028;2022-10-16T20:30:27;4.35;;;3.35;;
24102;SDS011;12278;53.058;9.028;2022-10-16T20:34:27;5.50;;;2.78;;
24102;SDS011;12278;53.058;9.028;2022-10-16T20:38:28;3.38;;;2.67;;
24102;SDS011;12278;53.058;9.028;2022-10-16T20:42:29;3.58;;;3.15;;
24102;SDS011;12278;53.058;9.028;2022-10-16T20:46:29;3.30;;;2.80;;
24102;SDS011;12278;53.058;9.028;2022-10-16T20:50:30;7.80;;;3.20;;
24102;SDS011;12278;53.058;9.028;2022-10-16T20:54:31;3.83;;;3.38;;
24102;SDS011;12278;53.058;9.028;2022-10-16T20:58:32;8.70;;;3.42;;
24102;SDS011;12278;53.058;9.028;2022-10-16T21:02:32;4.13;;;3.13;;
24102;SDS011;12278;53.058;9.028;2022-10-16T21:06:34;4.85;;;3.42;;
24102;SDS011;12278;53.058;9.028;2022-10-16T21:10:36;9.63;;;4.30;;
24102;SDS011;12278;53.058;9.028;2022-10-16T21:14:37;6.13;;;4.05;;
24102;SDS011;12278;53.058;9.028;2022-10-16T21:18:37;8.35;;;4.25;;
24102;SDS011;12278;53.058;9.028;2022-10-16T21:22:38;9.65;;;4.15;;
24102;SDS011;12278;53.058;9.028;2022-10-16T21:26:38;8.10;;;4.80;;
24102;SDS011;12278;53.058;9.028;2022-10-16T21:30:39;7.20;;;4.55;;
24102;SDS011;12278;53.058;9.028;2022-10-16T21:34:40;5.97;;;4.00;;
24102;SDS011;12278;53.058;9.028;2022-10-16T21:38:40;9.20;;;3.78;;
24102;SDS011;12278;53.058;9.028;2022-10-16T21:42:41;11.77;;;5.40;;
24102;SDS011;12278;53.058;9.028;2022-10-16T21:46:43;5.93;;;4.22;;
24102;SDS011;12278;53.058;9.028;2022-10-16T21:50:47;8.18;;;3.72;;
24102;SDS011;12278;53.058;9.028;2022-10-16T21:54:47;8.27;;;4.32;;
24102;SDS011;12278;53.058;9.028;2022-10-16T21:58:48;6.90;;;4.25;;
24102;SDS011;12278;53.058;9.028;2022-10-16T22:02:49;10.25;;;3.60;;
24102;SDS011;12278;53.058;9.028;2022-10-16T22:06:49;8.27;;;3.72;;
24102;SDS011;12278;53.058;9.028;2022-10-16T22:10:50;5.82;;;3.63;;
24102;SDS011;12278;53.058;9.028;2022-10-16T22:14:50;6.00;;;3.58;;
24102;SDS011;12278;53.058;9.028;2022-10-16T22:18:51;4.10;;;3.10;;
24102;SDS011;12278;53.058;9.028;2022-10-16T22:22:53;5.80;;;3.10;;
24102;SDS011;12278;53.058;9.028;2022-10-16T22:26:54;8.73;;;3.13;;
24102;SDS011;12278;53.058;9.028;2022-10-16T22:30:55;5.97;;;3.22;;
24102;SDS011;12278;53.058;9.028;2022-10-16T22:34:55;10.27;;;4.80;;
24102;SDS011;12278;53.058;9.028;2022-10-16T22:38:56;12.32;;;5.10;;
24102;SDS011;12278;53.058;9.028;2022-10-16T22:42:57;5.85;;;3.17;;
24102;SDS011;12278;53.058;9.028;2022-10-16T22:46:58;9.35;;;3.95;;
24102;SDS011;12278;53.058;9.028;2022-10-16T22:50:58;3.15;;;2.83;;
24102;SDS011;12278;53.058;9.028;2022-10-16T22:54:59;8.00;;;2.53;;
24102;SDS011;12278;53.058;9.028;2022-10-16T22:59:00;4.45;;;2.90;;
24102;SDS011;12278;53.058;9.028;2022-10-16T23:03:00;4.57;;;3.00;;
24102;SDS011;12278;53.058;9.028;2022-10-16T23:07:01;4.05;;;2.67;;
24102;SDS011;12278;53.058;9.028;2022-10-16T23:11:08;3.72;;;2.78;;
24102;SDS011;12278;53.058;9.028;2022-10-16T23:15:10;7.35;;;2.88;;
24102;SDS011;12278;53.058;9.028;2022-10-16T23:19:11;5.35;;;3.05;;
24102;SDS011;12278;53.058;9.028;2022-10-16T23:23:11;4.57;;;2.30;;
24102;SDS011;12278;53.058;9.028;2022-10-16T23:27:12;4.55;;;2.25;;
24102;SDS011;12278;53.058;9.028;2022-10-16T23:31:13;3.72;;;2.08;;
24102;SDS011;12278;53.058;9.028;2022-10-16T23:35:14;6.93;;;2.45;;
24102;SDS011;12278;53.058;9.028;2022-10-16T23:39:16;3.00;;;1.90;;
24102;SDS011;12278;53.058;9.028;2022-10-16T23:43:17;3.20;;;2.03;;
24102;SDS011;12278;53.058;9.028;2022-10-16T23:47:17;5.18;;;2.15;;
24102;SDS011;12278;53.058;9.028;2022-10-16T23:51:18;3.53;;;2.15;;
24102;SDS011;12278;53.058;9.028;2022-10-16T23:55:18;3.53;;;1.80;;
24102;SDS011;12278;53.058;9.028;2022-10-16T23:59:19;4.88;;;2.70;;
